HomeShort term forecast

Short term forecast

Graphical weather forecast for the next 48 hours for Montreal:
Short term forecast
This weather forecast is automatically refreshed every 3 hours.

Hourly Experimental Forecast for the next 48 hours

Overall summary: Rain starting later this afternoon, continuing until this evening.

 Date & Hour   Temp   Feel   Baro   Hum   Speed & Bearing   Wind Gust   Precip.%   Precip.   Visibility   Cloud cover   Conditions 
 24/06/2018 - 15:00  23.9°C  24.0°C  1009.2 hPa  63%  5.0 km/h   8.6 km/h  0%  --  16.1km  100%  Overcast 
 24/06/2018 - 16:00  24.0°C  24.1°C  1009.4 hPa  63%  8.0 km/h   9.9 km/h  33%  0.81 mm/h  16.1km  94%  Light Rain 
 24/06/2018 - 17:00  22.1°C  22.3°C  1009.8 hPa  73%  12.3 km/h   18.6 km/h  57%  1.99 mm/h  9.7km  87%  Rain 
 24/06/2018 - 18:00  20.7°C  20.8°C  1010.4 hPa  76%  14.3 km/h   25.3 km/h  59%  1.47 mm/h  11.0km  90%  Rain 
 24/06/2018 - 19:00  19.2°C  19.2°C  1011.1 hPa  78%  14.7 km/h   25.0 km/h  54%  0.68 mm/h  13.0km  88%  Light Rain 
 24/06/2018 - 20:00  18.0°C  18.0°C  1011.8 hPa  77%  14.5 km/h   30.2 km/h  54%  0.66 mm/h  15.4km  87%  Light Rain 
 24/06/2018 - 21:00  17.0°C  17.0°C  1012.4 hPa  79%  13.9 km/h   29.3 km/h  50%  0.38 mm/h  15.5km  94%  Overcast 
 24/06/2018 - 22:00  16.5°C  16.5°C  1012.9 hPa  80%  10.1 km/h   25.2 km/h  42%  0.26 mm/h  15.4km  92%  Mostly Cloudy 
 24/06/2018 - 23:00  15.8°C  15.8°C  1013.3 hPa  82%  7.5 km/h   20.1 km/h  50%  0.48 mm/h  15.2km  83%  Mostly Cloudy 
 25/06/2018 - 00:00  15.2°C  15.2°C  1013.5 hPa  84%  7.7 km/h   17.6 km/h  13%  0.10 mm/h  15.3km  71%  Mostly Cloudy 
 25/06/2018 - 01:00  14.5°C  14.5°C  1013.5 hPa  87%  7.8 km/h   13.9 km/h  6%  0.05 mm/h  15.4km  57%  Partly Cloudy 
 25/06/2018 - 02:00  14.0°C  14.0°C  1013.7 hPa  87%  8.5 km/h   13.3 km/h  6%  0.07 mm/h  15.9km  46%  Partly Cloudy 
 25/06/2018 - 03:00  13.3°C  13.3°C  1013.9 hPa  84%  9.1 km/h   15.5 km/h  2%  0.02 mm/h  16.1km  46%  Partly Cloudy 
 25/06/2018 - 04:00  11.9°C  11.9°C  1014.4 hPa  83%  10.2 km/h   15.7 km/h  0%  --  16.1km  37%  Partly Cloudy 
 25/06/2018 - 05:00  11.4°C  11.4°C  1014.8 hPa  79%  11.2 km/h   18.6 km/h  0%  --  16.1km  30%  Partly Cloudy 
 25/06/2018 - 06:00  11.9°C  11.9°C  1015.5 hPa  74%  12.5 km/h   21.1 km/h  0%  --  16.1km  31%  Partly Cloudy 
 25/06/2018 - 07:00  13.3°C  13.3°C  1016.2 hPa  67%  12.7 km/h   23.8 km/h  0%  --  16.1km  27%  Partly Cloudy 
 25/06/2018 - 08:00  15.3°C  15.3°C  1016.8 hPa  58%  13.4 km/h   25.9 km/h  0%  --  16.1km  25%  Partly Cloudy 
 25/06/2018 - 09:00  16.8°C  16.8°C  1017.3 hPa  50%  15.3 km/h   26.6 km/h  0%  --  16.1km  23%  Clear 
 25/06/2018 - 10:00  18.3°C  18.3°C  1017.6 hPa  43%  16.9 km/h   26.5 km/h  0%  --  16.1km  21%  Clear 
 25/06/2018 - 11:00  19.5°C  19.5°C  1017.9 hPa  39%  18.4 km/h   26.2 km/h  0%  --  16.1km  18%  Clear 
 25/06/2018 - 12:00  20.6°C  20.6°C  1018.0 hPa  35%  18.8 km/h   26.0 km/h  0%  --  16.1km  15%  Clear 
 25/06/2018 - 13:00  21.4°C  21.4°C  1018.2 hPa  33%  18.7 km/h   25.6 km/h  0%  --  16.1km  12%  Clear 
 25/06/2018 - 14:00  22.4°C  22.4°C  1018.3 hPa  31%  18.6 km/h   25.4 km/h  0%  --  16.1km  9%  Clear 
 25/06/2018 - 15:00  23.2°C  23.2°C  1018.6 hPa  30%  18.8 km/h   25.9 km/h  0%  --  16.1km  8%  Clear 
 25/06/2018 - 16:00  23.8°C  23.8°C  1018.7 hPa  29%  18.8 km/h   26.4 km/h  0%  --  16.1km  8%  Clear 
 25/06/2018 - 17:00  23.6°C  23.6°C  1019.0 hPa  30%  18.1 km/h   26.2 km/h  0%  --  16.1km  8%  Clear 
 25/06/2018 - 18:00  22.7°C  22.7°C  1019.4 hPa  33%  16.4 km/h   24.4 km/h  0%  --  16.1km  7%  Clear 
 25/06/2018 - 19:00  21.7°C  21.7°C  1020.1 hPa  37%  14.1 km/h   21.8 km/h  0%  --  16.1km  7%  Clear 
 25/06/2018 - 20:00  20.5°C  20.5°C  1020.6 hPa  41%  11.7 km/h   19.1 km/h  0%  --  16.1km  7%  Clear 
 25/06/2018 - 21:00  19.0°C  19.0°C  1021.2 hPa  44%  10.0 km/h   16.3 km/h  0%  --  16.1km  5%  Clear 
 25/06/2018 - 22:00  17.5°C  17.5°C  1021.8 hPa  46%  9.4 km/h   13.6 km/h  0%  --  16.1km  2%  Clear 
 25/06/2018 - 23:00  15.8°C  15.8°C  1022.4 hPa  49%  8.9 km/h   11.7 km/h  0%  --  16.1km  1%  Clear 
 26/06/2018 - 00:00  14.5°C  14.5°C  1022.8 hPa  52%  8.2 km/h   11.4 km/h  0%  --  16.1km  0%  Clear 
 26/06/2018 - 01:00  13.2°C  13.2°C  1023.1 hPa  55%  7.6 km/h   12.1 km/h  0%  --  16.1km  0%  Clear 
 26/06/2018 - 02:00  12.2°C  12.2°C  1023.4 hPa  57%  7.0 km/h   12.1 km/h  0%  --  16.1km  0%  Clear 
 26/06/2018 - 03:00  11.0°C  11.0°C  1023.6 hPa  60%  6.6 km/h   10.2 km/h  0%  --  16.1km  0%  Clear 
 26/06/2018 - 04:00  10.2°C  10.2°C  1023.7 hPa  62%  6.1 km/h   7.6 km/h  0%  --  16.1km  0%  Clear 
 26/06/2018 - 05:00  9.9°C  9.4°C  1023.8 hPa  63%  5.9 km/h   6.0 km/h  0%  --  16.1km  0%  Clear 
 26/06/2018 - 06:00  11.1°C  11.1°C  1024.2 hPa  61%  5.6 km/h   6.0 km/h  0%  --  16.1km  0%  Clear 
 26/06/2018 - 07:00  13.5°C  13.5°C  1024.6 hPa  55%  5.5 km/h   6.8 km/h  0%  --  16.1km  0%  Clear 
 26/06/2018 - 08:00  16.0°C  16.0°C  1024.8 hPa  50%  5.4 km/h   8.4 km/h  0%  --  16.1km  0%  Clear 
 26/06/2018 - 09:00  18.0°C  18.0°C  1024.7 hPa  46%  6.2 km/h   11.0 km/h  0%  --  16.1km  2%  Clear 
 26/06/2018 - 10:00  19.7°C  19.7°C  1024.4 hPa  43%  7.4 km/h   14.2 km/h  0%  --  16.1km  11%  Clear 
 26/06/2018 - 11:00  21.1°C  21.1°C  1024.0 hPa  40%  9.2 km/h   16.6 km/h  0%  --  16.1km  3%  Clear 
 26/06/2018 - 12:00  22.3°C  22.3°C  1023.5 hPa  38%  11.0 km/h   17.9 km/h  0%  --  16.1km  20%  Clear 
 26/06/2018 - 13:00  23.2°C  23.2°C  1022.8 hPa  36%  12.4 km/h   18.6 km/h  0%  --  16.1km  10%  Clear 
 26/06/2018 - 14:00  24.5°C  24.5°C  1022.1 hPa  34%  14.2 km/h   19.5 km/h  0%  --  16.1km  13%  Clear 
Test

 

Past weather and reports

Past weatherFind in this section the past weather conditions, weather archive, graphics, reports and statistics.

Current conditions

Current weather condition for MontrealAll you need to know about the current weather conditions for Montreal. Weather data is updated every 10 minutes.

Weather forecast

Current Montreal weatherSince 2004, celinium.com website has provided accurate weather forecast for Montreal's island.